Time;durP1;ratioP1;P1;durP2;ratioP2;P2;SDS_P1;SDS_P2;PMS_P1;PMS_P2;Temp;Humidity;BMP_temperature;BMP_pressure;BME280_temperature;BME280_humidity;BME280_pressure;Samples;Min_cycle;Max_cycle;Signal;HPM_P1;HPM_P2
2022/09/10 00:00:16;;;;;;;0.40;0.40;;;15.00;99.90;;;;;;5049797;28;20047;-81
2022/09/10 00:02:43;;;;;;;0.40;0.40;;;15.10;99.90;;;;;;5056997;28;20047;-81
2022/09/10 00:05:11;;;;;;;0.40;0.40;;;15.10;99.90;;;;;;5046945;28;20135;-81
2022/09/10 00:07:37;;;;;;;0.40;0.40;;;15.10;99.90;;;;;;5044845;28;20047;-81
2022/09/10 00:10:04;;;;;;;0.40;0.40;;;15.10;99.90;;;;;;5049910;28;20039;-81
2022/09/10 00:12:30;;;;;;;0.40;0.40;;;15.10;99.90;;;;;;5051088;28;20527;-81
2022/09/10 00:14:56;;;;;;;0.40;0.40;;;15.20;99.90;;;;;;5043781;28;20208;-82
2022/09/10 00:17:23;;;;;;;0.50;0.50;;;15.20;99.90;;;;;;5054077;28;20048;-80
2022/09/10 00:19:48;;;;;;;0.40;0.40;;;15.20;99.90;;;;;;5032260;28;20094;-80
2022/09/10 00:22:14;;;;;;;0.40;0.40;;;15.20;99.90;;;;;;5024046;28;20158;-81
2022/09/10 00:24:40;;;;;;;0.40;0.40;;;15.30;99.90;;;;;;5049181;28;20089;-81
2022/09/10 00:27:06;;;;;;;0.40;0.40;;;15.30;99.90;;;;;;5051189;28;20563;-81
2022/09/10 00:29:32;;;;;;;0.50;0.50;;;15.30;99.90;;;;;;5067042;28;20049;-81
2022/09/10 00:31:58;;;;;;;0.40;0.40;;;15.30;99.90;;;;;;5052761;28;20320;-80
2022/09/10 00:34:23;;;;;;;0.50;0.50;;;15.30;99.90;;;;;;5034678;28;20202;-81
2022/09/10 00:36:49;;;;;;;0.40;0.40;;;15.30;99.90;;;;;;5049421;28;20197;-79
2022/09/10 00:39:21;;;;;;;0.40;0.40;;;15.30;99.90;;;;;;5043674;28;20062;-81
2022/09/10 00:41:47;;;;;;;0.40;0.40;;;15.30;99.90;;;;;;5062742;28;20117;-80
2022/09/10 00:44:38;;;;;;;0.40;0.40;;;15.30;99.90;;;;;;5060544;28;20040;-80
2022/09/10 00:47:11;;;;;;;0.40;0.40;;;15.30;99.90;;;;;;5049495;28;20048;-82
2022/09/10 00:49:43;;;;;;;0.40;0.40;;;15.30;99.90;;;;;;5053361;28;20108;-81
2022/09/10 00:52:11;;;;;;;0.50;0.50;;;15.40;99.90;;;;;;5044090;28;20133;-80
2022/09/10 00:54:39;;;;;;;0.40;0.40;;;15.40;99.90;;;;;;5061659;28;20044;-80
2022/09/10 00:57:12;;;;;;;0.40;0.40;;;15.30;99.90;;;;;;5041574;28;20400;-81
2022/09/10 00:59:41;;;;;;;0.43;0.43;;;15.30;99.90;;;;;;5064362;28;20773;-82
2022/09/10 01:02:07;;;;;;;0.40;0.40;;;15.40;99.90;;;;;;5045664;28;20527;-81
2022/09/10 01:04:33;;;;;;;0.40;0.40;;;15.30;99.90;;;;;;5065987;28;20138;-81
2022/09/10 01:07:00;;;;;;;0.40;0.40;;;15.30;99.90;;;;;;5043233;28;20577;-82
2022/09/10 01:09:26;;;;;;;0.40;0.40;;;15.30;99.90;;;;;;5061421;28;21026;-81
2022/09/10 01:12:22;;;;;;;0.40;0.40;;;15.30;99.90;;;;;;5055515;28;20756;-81
2022/09/10 01:14:54;;;;;;;0.40;0.40;;;15.40;99.90;;;;;;5055918;28;20058;-80
2022/09/10 01:17:42;;;;;;;0.50;0.50;;;15.30;99.90;;;;;;5064368;28;20039;-81
2022/09/10 01:20:37;;;;;;;0.40;0.40;;;15.40;99.90;;;;;;5049932;28;20062;-80
2022/09/10 01:23:30;;;;;;;0.40;0.40;;;15.40;99.90;;;;;;5049220;28;20396;-82
2022/09/10 01:26:14;;;;;;;0.50;0.50;;;15.30;99.90;;;;;;5047952;28;20069;-81
2022/09/10 01:28:51;;;;;;;;;;;15.40;99.90;;;;;;5044444;28;20068;-81
2022/09/10 01:31:36;;;;;;;0.40;0.40;;;15.40;99.90;;;;;;5039878;28;20649;-81
2022/09/10 01:34:07;;;;;;;0.40;0.40;;;15.30;99.90;;;;;;5035258;28;20050;-80
2022/09/10 01:36:38;;;;;;;0.40;0.40;;;15.40;99.90;;;;;;5046626;28;20468;-80
2022/09/10 01:39:04;;;;;;;0.50;0.50;;;15.30;99.90;;;;;;5046047;28;20729;-81
2022/09/10 01:41:31;;;;;;;0.40;0.40;;;15.30;99.90;;;;;;5044153;28;20641;-81
2022/09/10 01:43:56;;;;;;;0.52;0.52;;;15.40;99.90;;;;;;5044895;28;20771;-81
2022/09/10 01:46:52;;;;;;;0.40;0.40;;;15.30;99.90;;;;;;5047482;28;20056;-81
2022/09/10 01:49:40;;;;;;;0.40;0.40;;;15.30;99.90;;;;;;5046208;28;20051;-81
2022/09/10 01:52:21;;;;;;;0.50;0.50;;;15.30;99.90;;;;;;5048031;28;20062;-80
2022/09/10 01:55:04;;;;;;;0.40;0.40;;;15.40;99.90;;;;;;5050608;28;20496;-81
2022/09/10 01:58:04;;;;;;;0.40;0.40;;;15.30;99.90;;;;;;5051128;28;20578;-82
2022/09/10 02:00:32;;;;;;;0.40;0.40;;;15.40;99.90;;;;;;5050894;28;20138;-82
2022/09/10 02:03:17;;;;;;;0.40;0.40;;;15.40;99.90;;;;;;5051438;28;20106;-81
2022/09/10 02:05:46;;;;;;;0.40;0.40;;;15.40;99.90;;;;;;5073430;28;20443;-81
2022/09/10 02:08:19;;;;;;;0.40;0.40;;;15.40;99.90;;;;;;5049937;28;20723;-81
2022/09/10 02:10:58;;;;;;;0.45;0.45;;;15.40;99.90;;;;;;5053865;28;20062;-80
2022/09/10 02:13:24;;;;;;;0.40;0.40;;;15.40;99.90;;;;;;5070391;28;20047;-80
2022/09/10 02:15:51;;;;;;;0.40;0.40;;;15.40;99.90;;;;;;5069675;28;20134;-81
2022/09/10 02:18:21;;;;;;;0.40;0.40;;;15.40;99.90;;;;;;5051556;28;20044;-81
2022/09/10 02:20:49;;;;;;;0.40;0.40;;;15.40;99.90;;;;;;5050193;28;20501;-80
2022/09/10 02:23:18;;;;;;;0.40;0.40;;;15.40;99.90;;;;;;5050654;28;20047;-81
2022/09/10 02:25:44;;;;;;;0.40;0.40;;;15.40;99.90;;;;;;5051507;28;20062;-81
2022/09/10 02:28:11;;;;;;;0.40;0.40;;;15.40;99.90;;;;;;5031595;28;20798;-81
2022/09/10 02:30:36;;;;;;;0.40;0.40;;;15.50;99.90;;;;;;5048962;28;20040;-81
2022/09/10 02:33:02;;;;;;;0.50;0.50;;;15.50;99.90;;;;;;5055189;28;20062;-82
2022/09/10 02:35:29;;;;;;;0.40;0.40;;;15.50;99.90;;;;;;5072595;28;20090;-80
2022/09/10 02:37:57;;;;;;;0.40;0.40;;;15.50;99.90;;;;;;5052682;28;20058;-82
2022/09/10 02:40:23;;;;;;;0.50;0.50;;;15.50;99.90;;;;;;5081553;28;20139;-82
2022/09/10 02:42:49;;;;;;;0.40;0.40;;;15.50;99.90;;;;;;5062591;28;20142;-82
2022/09/10 02:45:15;;;;;;;0.40;0.40;;;15.50;99.90;;;;;;5053304;28;20067;-81
2022/09/10 02:47:41;;;;;;;0.40;0.40;;;15.50;99.90;;;;;;5050128;28;20044;-82
2022/09/10 02:50:07;;;;;;;0.40;0.40;;;15.50;99.90;;;;;;5052914;28;20048;-81
2022/09/10 02:52:33;;;;;;;0.40;0.40;;;15.50;99.90;;;;;;5050705;28;20040;-80
2022/09/10 02:54:59;;;;;;;0.40;0.40;;;15.60;99.90;;;;;;5053441;28;20605;-81
2022/09/10 02:57:25;;;;;;;0.40;0.40;;;15.50;99.90;;;;;;5054045;28;20869;-81
2022/09/10 02:59:52;;;;;;;0.40;0.40;;;15.60;99.90;;;;;;5069388;28;20047;-80
2022/09/10 03:02:19;;;;;;;0.50;0.50;;;15.50;99.90;;;;;;5049659;28;20206;-81
2022/09/10 03:04:45;;;;;;;0.50;0.50;;;15.60;99.90;;;;;;5051715;28;22316;-81
2022/09/10 03:07:15;;;;;;;0.50;0.50;;;15.50;99.90;;;;;;5068888;28;20393;-81
2022/09/10 03:09:41;;;;;;;0.40;0.40;;;15.60;99.90;;;;;;5050657;28;20048;-81
2022/09/10 03:12:07;;;;;;;0.40;0.40;;;15.50;99.90;;;;;;5036516;28;20442;-80
2022/09/10 03:14:33;;;;;;;0.40;0.40;;;15.50;99.90;;;;;;5050078;28;21226;-81
2022/09/10 03:16:59;;;;;;;0.40;0.40;;;15.50;99.90;;;;;;5052085;28;20051;-81
2022/09/10 03:19:25;;;;;;;0.40;0.40;;;15.50;99.90;;;;;;5028523;28;20055;-80
2022/09/10 03:21:51;;;;;;;0.40;0.40;;;15.50;99.90;;;;;;5069890;28;20753;-81
2022/09/10 03:24:18;;;;;;;0.40;0.40;;;15.50;99.90;;;;;;5031897;28;20039;-81
2022/09/10 03:26:44;;;;;;;0.40;0.40;;;15.60;99.90;;;;;;5061409;28;20237;-79
2022/09/10 03:29:11;;;;;;;0.40;0.40;;;15.60;99.90;;;;;;5052409;28;20043;-80
2022/09/10 03:31:37;;;;;;;0.50;0.50;;;15.50;99.90;;;;;;5052463;28;20039;-80
2022/09/10 03:34:03;;;;;;;0.50;0.50;;;15.60;99.90;;;;;;5068552;28;20067;-81
2022/09/10 03:36:30;;;;;;;0.43;0.43;;;15.60;99.90;;;;;;5048810;28;22079;-80
2022/09/10 03:38:59;;;;;;;0.43;0.43;;;15.60;99.90;;;;;;5051973;28;20051;-80
2022/09/10 03:41:27;;;;;;;0.40;0.40;;;15.60;99.90;;;;;;5064324;28;20044;-81
2022/09/10 03:43:54;;;;;;;0.50;0.50;;;15.70;99.90;;;;;;5056482;28;20048;-81
2022/09/10 03:46:21;;;;;;;0.40;0.40;;;15.60;99.90;;;;;;5047716;28;20048;-81
2022/09/10 03:48:47;;;;;;;0.50;0.50;;;15.70;99.90;;;;;;5069379;28;20396;-81
2022/09/10 03:51:14;;;;;;;0.50;0.50;;;15.60;99.90;;;;;;5070220;28;20051;-81
2022/09/10 03:53:41;;;;;;;0.50;0.50;;;15.70;99.90;;;;;;5052155;28;20063;-80
2022/09/10 03:56:07;;;;;;;0.43;0.43;;;15.60;99.90;;;;;;5051968;28;20722;-80
2022/09/10 03:58:33;;;;;;;0.50;0.50;;;15.70;99.90;;;;;;5043934;28;20043;-80
2022/09/10 04:00:58;;;;;;;0.50;0.50;;;15.70;99.90;;;;;;5033085;28;20874;-80
2022/09/10 04:03:24;;;;;;;0.50;0.50;;;15.70;99.90;;;;;;5048030;28;20055;-80
2022/09/10 04:05:50;;;;;;;0.50;0.50;;;15.70;99.90;;;;;;5048755;28;20051;-80
2022/09/10 04:08:16;;;;;;;0.40;0.40;;;15.70;99.90;;;;;;5031696;28;20130;-79
2022/09/10 04:10:46;;;;;;;0.50;0.50;;;15.70;99.90;;;;;;5063876;28;20071;-80
2022/09/10 04:13:11;;;;;;;0.50;0.50;;;15.70;99.90;;;;;;5032669;28;20059;-79
2022/09/10 04:15:38;;;;;;;0.50;0.50;;;15.70;99.90;;;;;;5065716;28;20359;-80
2022/09/10 04:18:04;;;;;;;0.50;0.50;;;15.70;99.90;;;;;;5046095;28;20065;-80
2022/09/10 04:20:30;;;;;;;0.40;0.40;;;15.70;99.90;;;;;;5062853;28;20054;-80
2022/09/10 04:22:56;;;;;;;0.50;0.50;;;15.70;99.90;;;;;;5031708;28;20043;-81
2022/09/10 04:25:22;;;;;;;0.60;0.60;;;15.70;99.90;;;;;;5051567;28;20047;-80
2022/09/10 04:27:48;;;;;;;0.40;0.40;;;15.70;99.90;;;;;;5051282;28;20058;-81
2022/09/10 04:30:15;;;;;;;0.50;0.50;;;15.70;99.90;;;;;;5052951;28;20035;-80
2022/09/10 04:32:41;;;;;;;0.40;0.40;;;15.70;99.90;;;;;;5049468;28;20044;-81
2022/09/10 04:35:07;;;;;;;0.50;0.50;;;15.70;99.90;;;;;;5048594;28;20775;-81
2022/09/10 04:37:33;;;;;;;0.47;0.47;;;15.70;99.90;;;;;;5048942;28;20480;-81
2022/09/10 04:39:59;;;;;;;0.50;0.50;;;15.70;99.90;;;;;;5051111;28;20174;-81
2022/09/10 04:42:27;;;;;;;0.50;0.50;;;15.70;99.90;;;;;;5048819;28;20051;-82
2022/09/10 04:44:55;;;;;;;0.40;0.40;;;15.70;99.90;;;;;;5068477;28;20149;-80
2022/09/10 04:47:22;;;;;;;0.47;0.47;;;15.70;99.90;;;;;;5045688;28;20061;-83
2022/09/10 04:49:47;;;;;;;0.50;0.50;;;15.70;99.90;;;;;;5047867;28;20079;-80
2022/09/10 04:52:15;;;;;;;0.50;0.50;;;15.70;99.90;;;;;;5045456;28;20035;-80
2022/09/10 04:54:41;;;;;;;0.50;0.50;;;15.70;99.90;;;;;;5024299;28;20040;-81
2022/09/10 04:57:07;;;;;;;0.50;0.50;;;15.70;99.90;;;;;;5049395;28;20458;-82
2022/09/10 04:59:33;;;;;;;0.50;0.50;;;15.70;99.90;;;;;;5046913;28;20782;-82
2022/09/10 05:02:01;;;;;;;0.50;0.50;;;15.70;99.90;;;;;;5046273;28;20043;-82
2022/09/10 05:04:27;;;;;;;0.50;0.50;;;15.70;99.90;;;;;;5044053;28;20063;-82
2022/09/10 05:06:52;;;;;;;0.50;0.50;;;15.70;99.90;;;;;;5046427;28;20040;-81
2022/09/10 05:09:19;;;;;;;0.50;0.50;;;15.70;99.90;;;;;;5048841;28;20991;-82
2022/09/10 05:11:48;;;;;;;0.50;0.50;;;15.70;99.90;;;;;;5048213;28;20366;-82
2022/09/10 05:14:15;;;;;;;0.50;0.50;;;15.80;99.90;;;;;;5049802;28;20235;-81
2022/09/10 05:16:40;;;;;;;0.50;0.50;;;15.70;99.90;;;;;;5050219;28;20035;-82
2022/09/10 05:19:06;;;;;;;0.40;0.40;;;15.80;99.90;;;;;;5052726;28;20051;-82
2022/09/10 05:21:32;;;;;;;0.50;0.50;;;15.70;99.90;;;;;;5046537;28;20051;-81
2022/09/10 05:23:58;;;;;;;0.40;0.40;;;15.80;99.90;;;;;;5046508;28;20369;-81
2022/09/10 05:26:24;;;;;;;0.50;0.50;;;15.80;99.90;;;;;;5064244;28;20436;-82
2022/09/10 05:28:54;;;;;;;0.50;0.50;;;15.80;99.90;;;;;;5047733;28;20759;-80
2022/09/10 05:31:20;;;;;;;0.40;0.40;;;15.80;99.90;;;;;;5047413;28;20173;-81
2022/09/10 05:33:45;;;;;;;0.50;0.50;;;15.70;99.90;;;;;;5057792;28;20411;-81
2022/09/10 05:36:12;;;;;;;0.47;0.47;;;15.70;99.90;;;;;;5061348;28;20530;-80
2022/09/10 05:38:38;;;;;;;0.40;0.40;;;15.70;99.90;;;;;;5058610;28;20280;-80
2022/09/10 05:41:05;;;;;;;0.50;0.50;;;15.80;99.90;;;;;;5057762;28;20323;-81
2022/09/10 05:43:31;;;;;;;0.40;0.40;;;15.70;99.90;;;;;;5061098;28;20052;-80
2022/09/10 05:45:57;;;;;;;0.50;0.50;;;15.80;99.90;;;;;;5058199;28;20388;-80
2022/09/10 05:48:23;;;;;;;0.50;0.50;;;15.70;99.90;;;;;;5064440;28;20082;-80
2022/09/10 05:50:49;;;;;;;0.50;0.50;;;15.70;99.90;;;;;;5077869;28;20043;-81
2022/09/10 05:53:14;;;;;;;0.50;0.50;;;15.80;99.90;;;;;;5045142;28;20047;-82
2022/09/10 05:55:40;;;;;;;0.50;0.50;;;15.70;99.90;;;;;;5060957;28;20117;-80
2022/09/10 05:58:06;;;;;;;0.50;0.50;;;15.90;99.90;;;;;;5062838;28;20067;-80
2022/09/10 06:00:32;;;;;;;0.50;0.50;;;15.80;99.90;;;;;;5046709;28;20428;-81
2022/09/10 06:02:58;;;;;;;0.50;0.50;;;15.80;99.90;;;;;;5039246;28;20055;-80
2022/09/10 06:05:24;;;;;;;0.50;0.50;;;15.90;99.90;;;;;;5028303;28;20047;-80
2022/09/10 06:07:50;;;;;;;0.50;0.50;;;15.90;99.90;;;;;;5017941;28;20052;-80
2022/09/10 06:10:16;;;;;;;0.50;0.50;;;15.90;99.90;;;;;;5045801;28;20116;-80
2022/09/10 06:12:53;;;;;;;0.50;0.50;;;16.00;99.90;;;;;;5062690;28;20043;-81
2022/09/10 06:15:20;;;;;;;0.50;0.50;;;16.00;99.90;;;;;;5050723;28;21007;-81
2022/09/10 06:17:45;;;;;;;0.50;0.50;;;16.00;99.90;;;;;;5062126;28;20564;-81
2022/09/10 06:20:11;;;;;;;0.50;0.50;;;16.00;99.90;;;;;;5054341;28;20043;-81
2022/09/10 06:22:40;;;;;;;0.50;0.50;;;16.10;99.90;;;;;;5079435;28;20417;-81
2022/09/10 06:25:06;;;;;;;0.50;0.50;;;15.90;99.90;;;;;;5064509;28;20043;-82
2022/09/10 06:27:33;;;;;;;0.90;0.90;;;16.00;99.90;;;;;;5062948;28;20058;-82
2022/09/10 06:29:59;;;;;;;0.50;0.50;;;16.00;99.90;;;;;;5035050;28;20052;-80
2022/09/10 06:32:24;;;;;;;0.50;0.50;;;16.10;99.90;;;;;;5045964;28;20086;-80
2022/09/10 06:34:50;;;;;;;0.50;0.50;;;16.10;99.90;;;;;;5075879;28;20151;-80
2022/09/10 06:37:17;;;;;;;0.50;0.50;;;16.10;99.90;;;;;;5083270;28;20051;-79
2022/09/10 06:39:43;;;;;;;0.50;0.50;;;16.10;99.90;;;;;;5061288;28;20059;-80
2022/09/10 06:42:09;;;;;;;0.50;0.50;;;16.10;99.90;;;;;;5085319;28;20056;-81
2022/09/10 06:44:34;;;;;;;0.40;0.40;;;16.00;99.90;;;;;;5050358;28;20054;-79
2022/09/10 06:47:10;;;;;;;0.50;0.50;;;16.10;99.90;;;;;;5066099;28;20050;-80
2022/09/10 06:49:35;;;;;;;0.50;0.50;;;16.10;99.90;;;;;;5064081;28;20054;-80
2022/09/10 06:52:02;;;;;;;0.50;0.50;;;16.10;99.90;;;;;;5083217;28;21754;-80
2022/09/10 06:54:28;;;;;;;0.50;0.50;;;16.10;99.90;;;;;;5067632;28;20059;-80
2022/09/10 06:56:53;;;;;;;0.40;0.40;;;16.10;99.90;;;;;;5049745;28;20058;-79
2022/09/10 06:59:19;;;;;;;0.40;0.40;;;16.20;99.90;;;;;;5062339;28;20052;-80
2022/09/10 07:01:46;;;;;;;0.50;0.50;;;16.10;99.90;;;;;;5082521;28;20314;-80
2022/09/10 07:04:12;;;;;;;0.50;0.50;;;16.30;99.90;;;;;;5064601;28;20163;-79
2022/09/10 07:06:38;;;;;;;0.50;0.50;;;16.30;99.90;;;;;;5046041;28;20101;-80
2022/09/10 07:09:04;;;;;;;0.50;0.50;;;16.40;99.90;;;;;;5064692;28;20087;-79
2022/09/10 07:11:30;;;;;;;0.50;0.50;;;16.50;99.90;;;;;;5065164;28;20560;-80
2022/09/10 07:13:57;;;;;;;0.50;0.50;;;16.50;99.90;;;;;;5066381;28;20068;-80
2022/09/10 07:16:25;;;;;;;0.50;0.50;;;16.50;99.90;;;;;;5067899;28;20070;-80
2022/09/10 07:18:54;;;;;;;0.50;0.50;;;16.50;99.90;;;;;;5086025;28;20055;-79
2022/09/10 07:21:21;;;;;;;0.50;0.50;;;16.60;99.90;;;;;;5057280;28;20040;-81
2022/09/10 07:23:48;;;;;;;0.40;0.40;;;16.60;99.90;;;;;;5070177;28;20053;-80
2022/09/10 07:26:16;;;;;;;0.50;0.50;;;16.50;99.90;;;;;;5068351;28;20138;-81
2022/09/10 07:28:43;;;;;;;0.50;0.50;;;16.60;99.90;;;;;;5052291;28;20566;-80
2022/09/10 07:31:27;;;;;;;0.50;0.50;;;16.50;99.90;;;;;;5086678;28;20039;-81
2022/09/10 07:33:54;;;;;;;0.50;0.50;;;16.50;99.90;;;;;;5067079;28;20058;-81
2022/09/10 07:36:20;;;;;;;0.50;0.50;;;16.60;99.90;;;;;;5087440;28;20044;-81
2022/09/10 07:38:46;;;;;;;0.50;0.50;;;16.50;99.90;;;;;;5069170;28;20126;-81
2022/09/10 07:41:14;;;;;;;0.50;0.50;;;16.50;99.90;;;;;;5052733;28;20981;-81
2022/09/10 07:43:43;;;;;;;0.50;0.50;;;16.60;99.90;;;;;;5086143;28;20051;-80
2022/09/10 07:46:19;;;;;;;0.47;0.47;;;16.70;99.90;;;;;;5068558;28;20745;-80
2022/09/10 07:48:47;;;;;;;0.43;0.43;;;16.70;99.90;;;;;;5073564;28;20052;-80
2022/09/10 07:51:17;;;;;;;0.50;0.50;;;16.50;99.90;;;;;;5086122;28;20101;-80
2022/09/10 07:53:43;;;;;;;0.50;0.50;;;16.70;99.90;;;;;;5068486;28;20108;-80
2022/09/10 07:56:10;;;;;;;0.40;0.40;;;16.90;99.90;;;;;;5067009;28;20051;-80
2022/09/10 07:58:37;;;;;;;0.40;0.40;;;16.90;99.90;;;;;;5066583;28;20047;-80
2022/09/10 08:01:12;;;;;;;0.50;0.50;;;17.00;99.90;;;;;;5086160;28;20031;-80
2022/09/10 08:03:39;;;;;;;0.50;0.50;;;17.10;99.90;;;;;;5062151;28;20557;-80
2022/09/10 08:06:06;;;;;;;0.50;0.50;;;17.00;99.90;;;;;;5059223;28;20509;-81
2022/09/10 08:08:34;;;;;;;0.50;0.50;;;17.20;99.90;;;;;;5056251;28;20142;-80
2022/09/10 08:11:15;;;;;;;0.43;0.43;;;17.20;99.90;;;;;;5048189;28;20047;-80
2022/09/10 08:13:46;;;;;;;0.40;0.40;;;17.40;99.90;;;;;;5064929;28;20048;-80
2022/09/10 08:16:15;;;;;;;0.40;0.40;;;17.40;99.90;;;;;;5065314;28;20048;-80
2022/09/10 08:18:45;;;;;;;0.40;0.40;;;17.50;99.90;;;;;;5049771;28;20050;-81
2022/09/10 08:21:12;;;;;;;0.40;0.40;;;17.60;99.90;;;;;;5050034;28;20047;-80
2022/09/10 08:23:38;;;;;;;0.40;0.40;;;17.50;99.90;;;;;;5066675;28;20873;-80
2022/09/10 08:26:06;;;;;;;0.40;0.40;;;17.70;99.90;;;;;;5068684;28;20075;-81
2022/09/10 08:28:33;;;;;;;0.45;0.45;;;17.80;99.90;;;;;;5067380;28;20056;-81
2022/09/10 08:31:06;;;;;;;0.40;0.40;;;17.80;99.90;;;;;;5082837;28;20049;-80
2022/09/10 08:33:34;;;;;;;0.40;0.40;;;17.80;99.90;;;;;;5066133;28;20047;-81
2022/09/10 08:36:00;;;;;;;0.40;0.40;;;17.70;99.90;;;;;;5051412;28;20048;-81
2022/09/10 08:38:32;;;;;;;0.47;0.47;;;17.70;99.90;;;;;;5062379;28;20048;-81
2022/09/10 08:40:59;;;;;;;0.40;0.40;;;18.00;99.90;;;;;;5066517;28;20524;-80
2022/09/10 08:43:50;;;;;;;0.40;0.40;;;18.10;99.90;;;;;;5068814;28;20054;-81
2022/09/10 08:46:22;;;;;;;0.40;0.40;;;18.20;99.90;;;;;;5065206;28;20051;-78
2022/09/10 08:48:53;;;;;;;0.40;0.40;;;18.40;99.90;;;;;;5066887;28;20047;-82
2022/09/10 08:51:26;;;;;;;0.40;0.40;;;18.50;99.90;;;;;;5066011;28;20083;-81
2022/09/10 08:54:15;;;;;;;0.40;0.40;;;18.50;99.90;;;;;;5064169;28;20055;-80
2022/09/10 08:56:41;;;;;;;0.40;0.40;;;18.20;99.90;;;;;;5061859;28;20278;-80
2022/09/10 08:59:26;;;;;;;0.40;0.40;;;18.10;99.90;;;;;;5056097;28;20519;-83
2022/09/10 09:01:58;;;;;;;0.40;0.40;;;18.20;99.90;;;;;;5049318;28;20047;-80
2022/09/10 09:04:43;;;;;;;0.40;0.40;;;18.10;99.90;;;;;;5064644;28;20151;-81
2022/09/10 09:07:15;;;;;;;0.40;0.40;;;18.10;99.90;;;;;;5049437;28;20043;-80
2022/09/10 09:09:42;;;;;;;0.47;0.47;;;18.40;99.90;;;;;;5064200;28;20075;-80
2022/09/10 09:12:51;;;;;;;0.40;0.40;;;18.60;99.90;;;;;;5082797;28;20704;-80
2022/09/10 09:15:40;;;;;;;0.40;0.40;;;18.60;99.90;;;;;;5062610;28;20087;-81
2022/09/10 09:18:51;;;;;;;0.40;0.40;;;18.70;99.90;;;;;;5063876;28;20035;-80
2022/09/10 09:21:34;;;;;;;0.40;0.40;;;18.70;99.90;;;;;;5065580;28;20055;-81
2022/09/10 09:24:04;;;;;;;0.40;0.40;;;18.60;99.90;;;;;;5067413;28;20204;-81
2022/09/10 09:26:43;;;;;;;0.40;0.40;;;18.60;99.90;;;;;;5063465;28;20293;-81
2022/09/10 09:29:22;;;;;;;0.40;0.40;;;19.00;99.90;;;;;;5083129;28;20044;-80
2022/09/10 09:31:55;;;;;;;0.40;0.40;;;19.40;99.90;;;;;;5083754;28;20554;-80
2022/09/10 09:34:33;;;;;;;0.40;0.40;;;19.90;99.90;;;;;;5068041;28;20047;-81
2022/09/10 09:37:03;;;;;;;0.40;0.40;;;20.50;99.90;;;;;;5064742;28;20051;-81
2022/09/10 09:40:05;;;;;;;0.40;0.40;;;20.10;99.90;;;;;;5065493;28;20104;-80
2022/09/10 09:42:38;;;;;;;0.40;0.40;;;19.90;99.90;;;;;;5057271;28;20499;-81
2022/09/10 09:45:36;;;;;;;0.40;0.40;;;20.30;99.90;;;;;;5076976;28;20051;-80
2022/09/10 09:48:08;;;;;;;0.50;0.50;;;20.00;99.90;;;;;;5082686;28;20113;-82
2022/09/10 09:50:38;;;;;;;0.40;0.40;;;19.90;99.90;;;;;;5081052;28;21248;-80
2022/09/10 09:53:03;;;;;;;0.40;0.40;;;19.40;99.90;;;;;;5082769;28;20048;-80
2022/09/10 09:55:32;;;;;;;0.35;0.35;;;20.00;99.90;;;;;;5080344;28;20048;-81
2022/09/10 09:58:20;;;;;;;0.40;0.40;;;19.80;99.90;;;;;;5080409;28;20055;-80
2022/09/10 10:00:54;;;;;;;0.40;0.40;;;20.20;99.90;;;;;;5082213;28;20262;-81
2022/09/10 10:03:25;;;;;;;0.40;0.40;;;19.70;99.90;;;;;;5082223;28;20370;-82
2022/09/10 10:06:07;;;;;;;0.40;0.40;;;19.50;99.90;;;;;;5065966;28;20068;-81
2022/09/10 10:08:41;;;;;;;0.40;0.40;;;19.60;99.90;;;;;;5079826;28;20043;-80
2022/09/10 10:11:08;;;;;;;0.40;0.40;;;19.90;99.90;;;;;;5081503;28;20040;-80
2022/09/10 10:13:42;;;;;;;0.40;0.40;;;20.70;99.90;;;;;;5083352;28;20113;-81
2022/09/10 10:16:16;;;;;;;0.40;0.40;;;20.70;99.90;;;;;;5085829;28;20052;-81
2022/09/10 10:18:43;;;;;;;0.40;0.40;;;20.30;99.90;;;;;;5087365;28;20048;-81
2022/09/10 10:21:16;;;;;;;0.40;0.40;;;19.90;99.90;;;;;;5083154;28;20051;-81
2022/09/10 10:23:42;;;;;;;0.40;0.40;;;20.20;99.90;;;;;;5079548;28;20067;-81
2022/09/10 10:26:20;;;;;;;0.50;0.50;;;20.20;99.90;;;;;;5084469;28;20847;-80
2022/09/10 10:28:52;;;;;;;0.40;0.40;;;19.90;99.90;;;;;;5085548;28;20298;-81
2022/09/10 10:31:19;;;;;;;0.40;0.40;;;19.90;99.90;;;;;;5068882;28;20597;-81
2022/09/10 10:34:15;;;;;;;0.40;0.40;;;20.50;99.90;;;;;;5073102;28;20092;-80
2022/09/10 10:37:07;;;;;;;0.40;0.40;;;20.40;99.90;;;;;;5088863;28;20044;-82
2022/09/10 10:39:39;;;;;;;0.40;0.40;;;21.10;99.90;;;;;;5069489;28;20058;-81
2022/09/10 10:42:12;;;;;;;0.40;0.40;;;21.10;99.90;;;;;;5067512;28;20144;-81
2022/09/10 10:45:17;;;;;;;0.40;0.40;;;21.40;99.90;;;;;;5069181;28;20086;-79
2022/09/10 10:48:08;;;;;;;;;;;21.70;99.90;;;;;;5022769;28;20873;-83
2022/09/10 10:50:57;;;;;;;0.40;0.40;;;21.50;99.90;;;;;;5044809;28;19924;-82
2022/09/10 10:53:40;;;;;;;0.30;0.30;;;21.50;99.90;;;;;;5067421;28;20212;-81
2022/09/10 10:56:20;;;;;;;0.40;0.40;;;20.80;99.90;;;;;;5066326;28;20039;-81
2022/09/10 10:59:03;;;;;;;0.40;0.40;;;20.70;99.90;;;;;;5067187;28;20058;-79
2022/09/10 11:01:35;;;;;;;0.30;0.30;;;20.60;99.90;;;;;;5083716;28;20174;-82
2022/09/10 11:04:16;;;;;;;0.30;0.30;;;20.90;99.90;;;;;;5064380;28;20070;-80
2022/09/10 11:06:48;;;;;;;0.30;0.30;;;21.40;99.90;;;;;;5065974;28;20043;-79
2022/09/10 11:09:23;;;;;;;0.40;0.40;;;21.00;99.90;;;;;;5066099;28;20052;-80
2022/09/10 11:12:04;;;;;;;0.30;0.30;;;20.80;99.90;;;;;;5081032;28;20044;-80
2022/09/10 11:14:47;;;;;;;0.30;0.30;;;20.90;99.90;;;;;;5063800;28;20112;-80
2022/09/10 11:17:21;;;;;;;0.30;0.30;;;20.70;99.90;;;;;;5084524;28;20036;-80
2022/09/10 11:19:56;;;;;;;;;;;21.20;99.90;;;;;;5068116;28;20368;-80
2022/09/10 11:22:29;;;;;;;0.40;0.40;;;21.20;99.90;;;;;;5061841;28;20407;-81
2022/09/10 11:25:22;;;;;;;0.30;0.30;;;21.30;99.90;;;;;;5059840;28;20158;-80
2022/09/10 11:27:58;;;;;;;0.30;0.30;;;20.80;99.90;;;;;;5045581;28;20051;-81
2022/09/10 11:30:24;;;;;;;0.35;0.35;;;20.80;99.90;;;;;;5047071;28;20039;-80
2022/09/10 11:33:08;;;;;;;0.30;0.30;;;20.80;99.90;;;;;;5063668;28;20128;-81
2022/09/10 11:35:52;;;;;;;0.32;0.32;;;20.70;99.90;;;;;;5065750;28;20745;-80
2022/09/10 11:38:21;;;;;;;0.30;0.30;;;20.70;99.90;;;;;;5052034;28;20068;-80
2022/09/10 11:41:08;;;;;;;0.40;0.40;;;20.90;99.90;;;;;;5066053;28;20706;-80
2022/09/10 11:43:37;;;;;;;0.40;0.40;;;20.70;99.90;;;;;;5061567;28;20047;-80
2022/09/10 11:46:08;;;;;;;0.40;0.40;;;20.50;99.90;;;;;;5047400;28;20052;-80
2022/09/10 11:49:03;;;;;;;0.40;0.40;;;20.40;99.90;;;;;;5038845;28;20051;-80
2022/09/10 11:51:33;;;;;;;0.40;0.40;;;20.50;99.90;;;;;;5010871;28;20086;-79
2022/09/10 11:54:01;;;;;;;0.40;0.40;;;20.80;99.90;;;;;;5042835;28;20130;-81
2022/09/10 12:00:18;;;;;;;0.40;0.40;;;20.40;99.90;;;;;;5017189;28;20062;-79
2022/09/10 12:03:09;;;;;;;0.40;0.40;;;20.80;99.90;;;;;;5034467;28;20052;-79
2022/09/10 12:05:56;;;;;;;0.30;0.30;;;20.70;99.90;;;;;;5040444;28;20122;-79
2022/09/10 12:08:54;;;;;;;0.40;0.40;;;20.70;99.90;;;;;;5036592;28;20047;-80
2022/09/10 12:11:46;;;;;;;0.40;0.40;;;20.50;99.90;;;;;;5039891;28;20077;-81
2022/09/10 12:14:20;;;;;;;0.40;0.40;;;20.40;99.90;;;;;;5002165;28;20047;-80
2022/09/10 12:16:51;;;;;;;0.30;0.30;;;20.40;99.90;;;;;;5042481;28;20248;-80
2022/09/10 12:19:37;;;;;;;0.40;0.40;;;20.50;99.90;;;;;;5048726;28;20702;-80
2022/09/10 12:22:25;;;;;;;0.40;0.40;;;20.70;99.90;;;;;;5044769;28;20890;-81
2022/09/10 12:25:03;;;;;;;0.40;0.40;;;20.80;99.90;;;;;;5023527;28;20058;-81
2022/09/10 12:27:47;;;;;;;0.40;0.40;;;20.90;99.90;;;;;;5020496;28;20607;-82
2022/09/10 12:30:43;;;;;;;;;;;20.90;99.90;;;;;;5038479;28;20829;-79
2022/09/10 12:33:12;;;;;;;0.40;0.40;;;20.80;99.90;;;;;;5032916;28;20744;-83
2022/09/10 12:35:48;;;;;;;0.40;0.40;;;20.70;99.90;;;;;;5054737;28;20071;-83
2022/09/10 12:38:45;;;;;;;0.40;0.40;;;20.90;99.90;;;;;;5040623;28;20247;-80
2022/09/10 12:41:31;;;;;;;0.40;0.40;;;21.00;99.90;;;;;;5035212;28;20047;-78
2022/09/10 12:43:58;;;;;;;0.40;0.40;;;21.40;99.90;;;;;;4986332;28;20055;-79
2022/09/10 12:46:25;;;;;;;0.40;0.40;;;21.20;99.90;;;;;;5037034;28;20150;-81
2022/09/10 12:48:54;;;;;;;0.40;0.40;;;21.30;99.90;;;;;;5040683;28;20043;-80
2022/09/10 12:52:01;;;;;;;0.40;0.40;;;21.30;99.90;;;;;;5035678;28;20055;-81
2022/09/10 12:54:39;;;;;;;0.40;0.40;;;21.30;99.90;;;;;;4932741;28;20046;-79
2022/09/10 12:57:23;;;;;;;0.30;0.30;;;21.30;99.90;;;;;;4937916;28;20257;-79
2022/09/10 13:00:02;;;;;;;0.40;0.40;;;21.60;99.90;;;;;;4991279;28;20047;-81
2022/09/10 13:02:49;;;;;;;0.30;0.30;;;21.90;99.90;;;;;;5034631;28;20666;-80
2022/09/10 13:05:31;;;;;;;0.30;0.30;;;21.70;99.90;;;;;;5054495;28;20115;-81
2022/09/10 13:08:16;;;;;;;0.30;0.30;;;21.60;99.90;;;;;;5061142;28;20059;-80
2022/09/10 13:10:44;;;;;;;;;;;21.30;99.90;;;;;;5030839;28;20132;-80
2022/09/10 13:13:43;;;;;;;0.35;0.35;;;21.50;99.90;;;;;;5045269;28;19928;-81
2022/09/10 13:16:33;;;;;;;0.30;0.30;;;21.50;99.90;;;;;;5040958;28;20046;-80